createdAt,value
2018-09-06T00:00:53.130Z,1014.6
2018-09-06T00:01:53.135Z,1014.65
2018-09-06T00:02:53.152Z,1014.66
2018-09-06T00:03:53.149Z,1014.63
2018-09-06T00:04:53.279Z,1014.62
2018-09-06T00:05:53.173Z,1014.65
2018-09-06T00:06:53.272Z,1014.6
2018-09-06T00:07:53.194Z,1014.65
2018-09-06T00:08:53.163Z,1014.62
2018-09-06T00:09:53.118Z,1014.61
2018-09-06T00:10:53.145Z,1014.61
2018-09-06T00:11:53.165Z,1014.59
2018-09-06T00:12:53.169Z,1014.59
2018-09-06T00:13:53.288Z,1014.56
2018-09-06T00:14:53.161Z,1014.56
2018-09-06T00:15:53.170Z,1014.55
2018-09-06T00:16:53.202Z,1014.57
2018-09-06T00:17:53.223Z,1014.59
2018-09-06T00:18:53.213Z,1014.58
2018-09-06T00:19:53.302Z,1014.56
2018-09-06T00:20:53.165Z,1014.56
2018-09-06T00:21:53.133Z,1014.52
2018-09-06T00:22:53.139Z,1014.57
2018-09-06T00:23:53.215Z,1014.54
2018-09-06T00:24:53.148Z,1014.51
2018-09-06T00:25:53.154Z,1014.53
2018-09-06T00:26:53.174Z,1014.49
2018-09-06T00:27:53.158Z,1014.52
2018-09-06T00:28:53.182Z,1014.48
2018-09-06T00:29:53.180Z,1014.48
2018-09-06T00:30:53.151Z,1014.48
2018-09-06T00:31:53.252Z,1014.49
2018-09-06T00:32:53.515Z,1014.52
2018-09-06T00:33:53.162Z,1014.49
2018-09-06T00:34:53.139Z,1014.5
2018-09-06T00:35:53.187Z,1014.49
2018-09-06T00:36:53.289Z,1014.53
2018-09-06T00:37:53.589Z,1014.46
2018-09-06T00:38:53.184Z,1014.43
2018-09-06T00:39:53.225Z,1014.44
2018-09-06T00:40:53.220Z,1014.47
2018-09-06T00:41:53.165Z,1014.45
2018-09-06T00:42:53.191Z,1014.44
2018-09-06T00:43:53.177Z,1014.42
2018-09-06T00:44:53.209Z,1014.41
2018-09-06T00:45:53.192Z,1014.4
2018-09-06T00:46:53.186Z,1014.42
2018-09-06T00:47:53.158Z,1014.41
2018-09-06T00:48:53.199Z,1014.46
2018-09-06T00:49:53.166Z,1014.43
2018-09-06T00:50:53.187Z,1014.45
2018-09-06T00:51:53.314Z,1014.38
2018-09-06T00:52:53.161Z,1014.41
2018-09-06T00:53:53.163Z,1014.4
2018-09-06T00:54:53.206Z,1014.4
2018-09-06T00:55:53.342Z,1014.42
2018-09-06T00:56:53.255Z,1014.4
2018-09-06T00:57:53.176Z,1014.39
2018-09-06T00:58:53.177Z,1014.36
2018-09-06T00:59:53.169Z,1014.35
2018-09-06T01:00:53.180Z,1014.33
2018-09-06T01:01:53.149Z,1014.36
2018-09-06T01:02:53.271Z,1014.35
2018-09-06T01:03:53.245Z,1014.37
2018-09-06T01:04:53.221Z,1014.3
2018-09-06T01:05:53.325Z,1014.35
2018-09-06T01:06:53.182Z,1014.32
2018-09-06T01:07:53.273Z,1014.33
2018-09-06T01:08:53.309Z,1014.33
2018-09-06T01:09:53.202Z,1014.33
2018-09-06T01:10:53.200Z,1014.33
2018-09-06T01:11:53.167Z,1014.34
2018-09-06T01:12:53.173Z,1014.37
2018-09-06T01:13:53.181Z,1014.31
2018-09-06T01:14:53.172Z,1014.35
2018-09-06T01:15:53.221Z,1014.34
2018-09-06T01:16:53.355Z,1014.29
2018-09-06T01:17:53.194Z,1014.35
2018-09-06T01:18:53.316Z,1014.3
2018-09-06T01:19:53.221Z,1014.35
2018-09-06T01:20:53.221Z,1014.32
2018-09-06T01:21:53.288Z,1014.33
2018-09-06T01:22:53.287Z,1014.29
2018-09-06T01:23:53.200Z,1014.28
2018-09-06T01:24:53.256Z,1014.29
2018-09-06T01:25:53.256Z,1014.25
2018-09-06T01:26:53.258Z,1014.25
2018-09-06T01:27:53.275Z,1014.27
2018-09-06T01:28:53.271Z,1014.27
2018-09-06T01:29:53.432Z,1014.28
2018-09-06T01:30:53.226Z,1014.26
2018-09-06T01:31:53.220Z,1014.28
2018-09-06T01:32:53.176Z,1014.24
2018-09-06T01:33:53.218Z,1014.26
2018-09-06T01:34:53.485Z,1014.25
2018-09-06T01:35:53.500Z,1014.26
2018-09-06T01:36:53.307Z,1014.25
2018-09-06T01:37:53.246Z,1014.24
2018-09-06T01:38:53.242Z,1014.23
2018-09-06T01:39:53.222Z,1014.21
2018-09-06T01:40:53.231Z,1014.19
2018-09-06T01:41:53.217Z,1014.24
2018-09-06T01:42:53.259Z,1014.18
2018-09-06T01:43:53.235Z,1014.21
2018-09-06T01:44:53.964Z,1014.14
2018-09-06T01:45:53.400Z,1014.17
2018-09-06T01:46:53.215Z,1014.21
2018-09-06T01:47:53.258Z,1014.22
2018-09-06T01:48:53.210Z,1014.23
2018-09-06T01:49:53.263Z,1014.23
2018-09-06T01:50:53.224Z,1014.22
2018-09-06T01:51:53.184Z,1014.19
2018-09-06T01:52:53.441Z,1014.18
2018-09-06T01:53:53.197Z,1014.17
2018-09-06T01:54:53.208Z,1014.17
2018-09-06T01:55:53.210Z,1014.16
2018-09-06T01:56:53.343Z,1014.14
2018-09-06T01:57:53.242Z,1014.16
2018-09-06T01:58:53.227Z,1014.14
2018-09-06T01:59:53.241Z,1014.07
2018-09-06T02:00:53.244Z,1014.09
2018-09-06T02:01:53.217Z,1014.11
2018-09-06T02:02:53.264Z,1014.07
2018-09-06T02:03:53.216Z,1014.08
2018-09-06T02:04:53.226Z,1014.03
2018-09-06T02:05:53.212Z,1014.07
2018-09-06T02:06:53.220Z,1014.09
2018-09-06T02:07:53.207Z,1014.09
2018-09-06T02:08:53.206Z,1014.07
2018-09-06T02:09:53.225Z,1014.02
2018-09-06T02:10:53.230Z,1014.08
2018-09-06T02:11:53.231Z,1014.05
2018-09-06T02:12:53.234Z,1014.03
2018-09-06T02:13:53.232Z,1014.08
2018-09-06T02:14:53.237Z,1014.06
2018-09-06T02:15:53.243Z,1014.07
2018-09-06T02:16:53.211Z,1014.06
2018-09-06T02:17:53.239Z,1014.08
2018-09-06T02:18:53.215Z,1014.09
2018-09-06T02:19:53.220Z,1014.07
2018-09-06T02:20:53.230Z,1014.05
2018-09-06T02:21:53.238Z,1014.04
2018-09-06T02:22:53.213Z,1014.05
2018-09-06T02:23:53.243Z,1014.06
2018-09-06T02:24:53.267Z,1014.06
2018-09-06T02:25:53.217Z,1014.05
2018-09-06T02:26:53.288Z,1014.02
2018-09-06T02:27:53.251Z,1014.04
2018-09-06T02:28:53.237Z,1014.03
2018-09-06T02:29:53.249Z,1014.01
2018-09-06T02:30:53.230Z,1014.04
2018-09-06T02:31:53.320Z,1013.99
2018-09-06T02:32:53.273Z,1014
2018-09-06T02:33:53.532Z,1014.01
2018-09-06T02:34:53.224Z,1013.99
2018-09-06T02:35:53.487Z,1013.93
2018-09-06T02:36:53.312Z,1013.97
2018-09-06T02:37:53.233Z,1013.99
2018-09-06T02:38:53.270Z,1013.95
2018-09-06T02:39:53.271Z,1013.97
2018-09-06T02:40:53.238Z,1013.96
2018-09-06T02:41:53.292Z,1013.98
2018-09-06T02:42:53.293Z,1013.96
2018-09-06T02:43:53.284Z,1013.93
2018-09-06T02:44:53.356Z,1013.92
2018-09-06T02:45:53.370Z,1013.93
2018-09-06T02:46:53.333Z,1013.92
2018-09-06T02:47:53.432Z,1013.92
2018-09-06T02:48:53.266Z,1013.89
2018-09-06T02:49:53.241Z,1013.87
2018-09-06T02:50:53.277Z,1013.85
2018-09-06T02:51:53.295Z,1013.86
2018-09-06T02:52:53.368Z,1013.85
2018-09-06T02:53:53.467Z,1013.85
2018-09-06T02:54:53.265Z,1013.81
2018-09-06T02:55:53.577Z,1013.84
2018-09-06T02:56:53.330Z,1013.8
2018-09-06T02:57:53.435Z,1013.83
2018-09-06T02:58:53.325Z,1013.8
2018-09-06T02:59:53.310Z,1013.8
2018-09-06T03:00:53.511Z,1013.8
2018-09-06T03:01:53.562Z,1013.75
2018-09-06T03:02:53.313Z,1013.73
2018-09-06T03:03:53.432Z,1013.73
2018-09-06T03:04:53.272Z,1013.71
2018-09-06T03:05:53.418Z,1013.68
2018-09-06T03:06:53.288Z,1013.71
2018-09-06T03:07:53.257Z,1013.66
2018-09-06T03:08:53.476Z,1013.64
2018-09-06T03:09:53.514Z,1013.66
2018-09-06T03:10:53.674Z,1013.69
2018-09-06T03:11:53.261Z,1013.67
2018-09-06T03:12:54.109Z,1013.68
2018-09-06T03:13:53.274Z,1013.69
2018-09-06T03:14:53.281Z,1013.71
2018-09-06T03:15:53.594Z,1013.71
2018-09-06T03:16:53.500Z,1013.7
2018-09-06T03:17:53.487Z,1013.7
2018-09-06T03:18:53.269Z,1013.73
2018-09-06T03:19:53.383Z,1013.68
2018-09-06T03:20:53.283Z,1013.72
2018-09-06T03:21:53.511Z,1013.73
2018-09-06T03:22:53.358Z,1013.72
2018-09-06T03:23:53.281Z,1013.74
2018-09-06T03:24:53.270Z,1013.73
2018-09-06T03:25:53.935Z,1013.74
2018-09-06T03:26:53.372Z,1013.73
2018-09-06T03:27:53.324Z,1013.75
2018-09-06T03:28:53.258Z,1013.71
2018-09-06T03:29:53.293Z,1013.75
2018-09-06T03:30:53.343Z,1013.73
2018-09-06T03:31:53.309Z,1013.74
2018-09-06T03:32:53.270Z,1013.78
2018-09-06T03:33:53.302Z,1013.78
2018-09-06T03:34:53.289Z,1013.76
2018-09-06T03:35:53.400Z,1013.77
2018-09-06T03:36:53.290Z,1013.79
2018-09-06T03:37:53.286Z,1013.79
2018-09-06T03:38:53.348Z,1013.83
2018-09-06T03:39:53.507Z,1013.75
2018-09-06T03:40:53.280Z,1013.74
2018-09-06T03:41:53.281Z,1013.81
2018-09-06T03:42:53.335Z,1013.76
2018-09-06T03:43:53.361Z,1013.75
2018-09-06T03:44:53.285Z,1013.74
2018-09-06T03:45:53.302Z,1013.75
2018-09-06T03:46:53.310Z,1013.76
2018-09-06T03:47:53.300Z,1013.74
2018-09-06T03:48:53.315Z,1013.76
2018-09-06T03:49:53.314Z,1013.72
2018-09-06T03:50:53.683Z,1013.74
2018-09-06T03:51:53.382Z,1013.75
2018-09-06T03:52:53.481Z,1013.78
2018-09-06T03:53:53.344Z,1013.78
2018-09-06T03:54:53.301Z,1013.76
2018-09-06T03:55:53.391Z,1013.78
2018-09-06T03:56:53.426Z,1013.78
2018-09-06T03:57:53.571Z,1013.73
2018-09-06T03:58:53.290Z,1013.76
2018-09-06T03:59:53.376Z,1013.75
2018-09-06T04:00:53.403Z,1013.76
2018-09-06T04:01:53.364Z,1013.76
2018-09-06T04:02:53.621Z,1013.76
2018-09-06T04:03:53.402Z,1013.73
2018-09-06T04:04:53.440Z,1013.7
2018-09-06T04:05:53.289Z,1013.75
2018-09-06T04:06:53.300Z,1013.74
2018-09-06T04:07:53.512Z,1013.73
2018-09-06T04:08:53.459Z,1013.75
2018-09-06T04:09:53.557Z,1013.72
2018-09-06T04:10:53.422Z,1013.78
2018-09-06T04:11:53.315Z,1013.77
2018-09-06T04:12:53.441Z,1013.77
2018-09-06T04:13:53.339Z,1013.73
2018-09-06T04:14:53.363Z,1013.74
2018-09-06T04:15:53.311Z,1013.74
2018-09-06T04:16:53.313Z,1013.74
2018-09-06T04:17:53.355Z,1013.76
2018-09-06T04:18:53.327Z,1013.75
2018-09-06T04:19:53.483Z,1013.75
2018-09-06T04:20:53.345Z,1013.71
2018-09-06T04:21:53.415Z,1013.74
2018-09-06T04:22:53.427Z,1013.8
2018-09-06T04:23:53.308Z,1013.76
2018-09-06T04:24:53.403Z,1013.78
2018-09-06T04:25:53.558Z,1013.76
2018-09-06T04:26:53.393Z,1013.82
2018-09-06T04:27:53.507Z,1013.78
2018-09-06T04:28:53.546Z,1013.8
2018-09-06T04:29:53.329Z,1013.79
2018-09-06T04:30:53.372Z,1013.81
2018-09-06T04:31:53.341Z,1013.83
2018-09-06T04:32:53.599Z,1013.81
2018-09-06T04:33:53.430Z,1013.8
2018-09-06T04:34:53.394Z,1013.83
2018-09-06T04:35:53.631Z,1013.82
2018-09-06T04:36:53.329Z,1013.79
2018-09-06T04:37:53.495Z,1013.77
2018-09-06T04:38:53.331Z,1013.79
2018-09-06T04:39:53.407Z,1013.78
2018-09-06T04:40:53.333Z,1013.78
2018-09-06T04:41:53.382Z,1013.76
2018-09-06T04:42:53.426Z,1013.73
2018-09-06T04:43:53.763Z,1013.76
2018-09-06T04:44:53.329Z,1013.76
2018-09-06T04:45:53.387Z,1013.78
2018-09-06T04:46:53.329Z,1013.74
2018-09-06T04:47:53.703Z,1013.71
2018-09-06T04:48:53.320Z,1013.71
2018-09-06T04:49:53.863Z,1013.72
2018-09-06T04:50:53.349Z,1013.75
2018-09-06T04:51:53.455Z,1013.69
2018-09-06T04:52:53.361Z,1013.72
2018-09-06T04:53:53.340Z,1013.7
2018-09-06T04:54:53.364Z,1013.72
2018-09-06T04:55:53.349Z,1013.74
2018-09-06T04:56:53.535Z,1013.73
2018-09-06T04:57:53.376Z,1013.8
2018-09-06T04:58:53.372Z,1013.77
2018-09-06T04:59:53.455Z,1013.75
2018-09-06T05:00:53.335Z,1013.74
2018-09-06T05:01:53.585Z,1013.75
2018-09-06T05:02:53.326Z,1013.73
2018-09-06T05:03:53.346Z,1013.71
2018-09-06T05:04:53.560Z,1013.71
2018-09-06T05:05:53.341Z,1013.69
2018-09-06T05:06:53.354Z,1013.71
2018-09-06T05:07:53.333Z,1013.72
2018-09-06T05:08:53.344Z,1013.71
2018-09-06T05:09:53.349Z,1013.72
2018-09-06T05:10:53.378Z,1013.77
2018-09-06T05:11:53.352Z,1013.76
2018-09-06T05:12:53.383Z,1013.76
2018-09-06T05:13:53.347Z,1013.76
2018-09-06T05:14:53.337Z,1013.76
2018-09-06T05:15:53.413Z,1013.78
2018-09-06T05:16:53.363Z,1013.77
2018-09-06T05:17:53.436Z,1013.8
2018-09-06T05:18:53.673Z,1013.77
2018-09-06T05:19:53.410Z,1013.84
2018-09-06T05:20:53.421Z,1013.81
2018-09-06T05:21:53.567Z,1013.81
2018-09-06T05:22:53.393Z,1013.81
2018-09-06T05:23:53.446Z,1013.8
2018-09-06T05:24:53.396Z,1013.76
2018-09-06T05:25:53.413Z,1013.8
2018-09-06T05:26:53.477Z,1013.76
2018-09-06T05:27:53.360Z,1013.75
2018-09-06T05:28:53.378Z,1013.75
2018-09-06T05:29:53.376Z,1013.75
2018-09-06T05:30:53.589Z,1013.71
2018-09-06T05:31:53.371Z,1013.69
2018-09-06T05:32:53.403Z,1013.7
2018-09-06T05:33:53.370Z,1013.7
2018-09-06T05:34:53.413Z,1013.68
2018-09-06T05:35:53.439Z,1013.7
2018-09-06T05:36:53.373Z,1013.7
2018-09-06T05:37:53.415Z,1013.68
2018-09-06T05:38:53.411Z,1013.69
2018-09-06T05:39:53.415Z,1013.66
2018-09-06T05:40:53.402Z,1013.69
2018-09-06T05:41:53.538Z,1013.75
2018-09-06T05:42:54.132Z,1013.71
2018-09-06T05:43:53.365Z,1013.74
2018-09-06T05:44:53.388Z,1013.7
2018-09-06T05:45:53.381Z,1013.69
2018-09-06T05:46:53.441Z,1013.76
2018-09-06T05:47:53.361Z,1013.77
2018-09-06T05:48:53.391Z,1013.74
2018-09-06T05:49:53.476Z,1013.76
2018-09-06T05:50:53.519Z,1013.79
2018-09-06T05:51:53.401Z,1013.79
2018-09-06T05:52:53.459Z,1013.83
2018-09-06T05:53:53.462Z,1013.81
2018-09-06T05:54:54.497Z,1013.84
2018-09-06T05:55:53.396Z,1013.89
2018-09-06T05:56:53.540Z,1013.85
2018-09-06T05:57:53.465Z,1013.84
2018-09-06T05:58:53.522Z,1013.84
2018-09-06T05:59:53.521Z,1013.83
2018-09-06T06:00:53.436Z,1013.79
2018-09-06T06:01:53.763Z,1013.81
2018-09-06T06:02:53.378Z,1013.79
2018-09-06T06:03:53.404Z,1013.76
2018-09-06T06:04:53.428Z,1013.8
2018-09-06T06:05:53.362Z,1013.77
2018-09-06T06:06:53.371Z,1013.76
2018-09-06T06:07:53.485Z,1013.78
2018-09-06T06:08:53.416Z,1013.75
2018-09-06T06:09:53.549Z,1013.76
2018-09-06T06:10:53.394Z,1013.76
2018-09-06T06:11:53.593Z,1013.78
2018-09-06T06:12:53.401Z,1013.77
2018-09-06T06:13:53.466Z,1013.75
2018-09-06T06:14:53.372Z,1013.75
2018-09-06T06:15:53.564Z,1013.75
2018-09-06T06:16:53.395Z,1013.72
2018-09-06T06:17:53.362Z,1013.75
2018-09-06T06:18:53.378Z,1013.72
2018-09-06T06:19:53.497Z,1013.72
2018-09-06T06:20:53.379Z,1013.71
2018-09-06T06:21:53.400Z,1013.7
2018-09-06T06:22:53.394Z,1013.72
2018-09-06T06:23:53.423Z,1013.68
2018-09-06T06:24:53.461Z,1013.69
2018-09-06T06:25:53.626Z,1013.73
2018-09-06T06:26:53.390Z,1013.71
2018-09-06T06:27:53.391Z,1013.72
2018-09-06T06:28:53.571Z,1013.69
2018-09-06T06:29:53.428Z,1013.72
2018-09-06T06:30:53.403Z,1013.74
2018-09-06T06:31:53.611Z,1013.73
2018-09-06T06:32:53.463Z,1013.75
2018-09-06T06:33:53.508Z,1013.73
2018-09-06T06:34:53.616Z,1013.74
2018-09-06T06:35:53.429Z,1013.73
2018-09-06T06:36:53.439Z,1013.73
2018-09-06T06:37:53.388Z,1013.74
2018-09-06T06:38:53.403Z,1013.71
2018-09-06T06:39:53.632Z,1013.72
2018-09-06T06:40:53.627Z,1013.7
2018-09-06T06:41:53.526Z,1013.73
2018-09-06T06:42:53.461Z,1013.72
2018-09-06T06:43:53.395Z,1013.68
2018-09-06T06:44:53.564Z,1013.7
2018-09-06T06:45:53.530Z,1013.7
2018-09-06T06:46:53.486Z,1013.68
2018-09-06T06:47:53.415Z,1013.69
2018-09-06T06:48:53.656Z,1013.68
2018-09-06T06:49:53.619Z,1013.67
2018-09-06T06:50:53.475Z,1013.67
2018-09-06T06:51:53.397Z,1013.7
2018-09-06T06:52:53.785Z,1013.7
2018-09-06T06:53:53.464Z,1013.68
2018-09-06T06:54:53.668Z,1013.67
2018-09-06T06:55:53.636Z,1013.7
2018-09-06T06:56:53.666Z,1013.7
2018-09-06T06:57:53.461Z,1013.74
2018-09-06T06:58:53.414Z,1013.72
2018-09-06T06:59:54.886Z,1013.76
2018-09-06T07:00:53.599Z,1013.77
2018-09-06T07:01:53.522Z,1013.8
2018-09-06T07:02:53.526Z,1013.82
2018-09-06T07:03:53.470Z,1013.86
2018-09-06T07:04:53.488Z,1013.89
2018-09-06T07:05:53.452Z,1013.86
2018-09-06T07:06:53.682Z,1013.86
2018-09-06T07:07:53.454Z,1013.88
2018-09-06T07:08:53.434Z,1013.89
2018-09-06T07:09:53.594Z,1013.92
2018-09-06T07:10:53.433Z,1013.85
2018-09-06T07:11:53.412Z,1013.9
2018-09-06T07:12:54.131Z,1013.9
2018-09-06T07:13:53.410Z,1013.9
2018-09-06T07:14:53.537Z,1013.88
2018-09-06T07:15:53.435Z,1013.9
2018-09-06T07:16:53.432Z,1013.9
2018-09-06T07:17:53.467Z,1013.92
2018-09-06T07:18:53.454Z,1013.93
2018-09-06T07:19:53.427Z,1013.87
2018-09-06T07:20:53.428Z,1013.91
2018-09-06T07:21:53.536Z,1013.89
2018-09-06T07:22:53.438Z,1013.92
2018-09-06T07:23:53.477Z,1013.88
2018-09-06T07:24:53.487Z,1013.91
2018-09-06T07:25:53.700Z,1013.95
2018-09-06T07:26:53.707Z,1013.9
2018-09-06T07:27:53.558Z,1013.87
2018-09-06T07:28:53.754Z,1013.9
2018-09-06T07:29:53.484Z,1013.88
2018-09-06T07:30:53.506Z,1013.82
2018-09-06T07:31:53.490Z,1013.87
2018-09-06T07:32:53.511Z,1013.86
2018-09-06T07:33:53.490Z,1013.9
2018-09-06T07:34:53.877Z,1013.9
2018-09-06T07:35:53.490Z,1013.9
2018-09-06T07:36:53.432Z,1013.89
2018-09-06T07:37:53.435Z,1013.88
2018-09-06T07:38:53.453Z,1013.87
2018-09-06T07:39:53.477Z,1013.83
2018-09-06T07:40:53.437Z,1013.86
2018-09-06T07:41:53.469Z,1013.87
2018-09-06T07:42:53.585Z,1013.84
2018-09-06T07:43:53.456Z,1013.84
2018-09-06T07:44:53.478Z,1013.86
2018-09-06T07:45:53.483Z,1013.83
2018-09-06T07:46:53.602Z,1013.83
2018-09-06T07:47:53.481Z,1013.84
2018-09-06T07:48:53.449Z,1013.85
2018-09-06T07:49:53.575Z,1013.81
2018-09-06T07:50:53.528Z,1013.8
2018-09-06T07:51:53.482Z,1013.8
2018-09-06T07:52:53.476Z,1013.83
2018-09-06T07:53:53.581Z,1013.82
2018-09-06T07:54:53.452Z,1013.83
2018-09-06T07:55:53.457Z,1013.86
2018-09-06T07:56:53.504Z,1013.87
2018-09-06T07:57:53.444Z,1013.86
2018-09-06T07:58:53.561Z,1013.87
2018-09-06T07:59:53.579Z,1013.85
2018-09-06T08:00:53.623Z,1013.85
2018-09-06T08:01:53.574Z,1013.83
2018-09-06T08:02:53.484Z,1013.83
2018-09-06T08:03:53.486Z,1013.83
2018-09-06T08:04:53.470Z,1013.81
2018-09-06T08:05:53.451Z,1013.8
2018-09-06T08:06:53.541Z,1013.78
2018-09-06T08:07:53.530Z,1013.82
2018-09-06T08:08:53.501Z,1013.74
2018-09-06T08:09:53.461Z,1013.76
2018-09-06T08:10:53.615Z,1013.75
2018-09-06T08:11:53.652Z,1013.77
2018-09-06T08:12:53.668Z,1013.8
2018-09-06T08:13:53.620Z,1013.78
2018-09-06T08:14:53.507Z,1013.79
2018-09-06T08:15:53.490Z,1013.78
2018-09-06T08:16:53.620Z,1013.79
2018-09-06T08:17:53.505Z,1013.75
2018-09-06T08:18:53.624Z,1013.78
2018-09-06T08:19:53.614Z,1013.74
2018-09-06T08:20:53.672Z,1013.73
2018-09-06T08:21:53.489Z,1013.74
2018-09-06T08:22:53.632Z,1013.7
2018-09-06T08:23:53.499Z,1013.69
2018-09-06T08:24:53.503Z,1013.72
2018-09-06T08:25:54.013Z,1013.68
2018-09-06T08:26:53.535Z,1013.67
2018-09-06T08:27:53.573Z,1013.68
2018-09-06T08:28:53.522Z,1013.7
2018-09-06T08:29:53.722Z,1013.69
2018-09-06T08:30:53.798Z,1013.66
2018-09-06T08:31:53.755Z,1013.64
2018-09-06T08:32:53.554Z,1013.59
2018-09-06T08:33:53.516Z,1013.61
2018-09-06T08:34:53.553Z,1013.62
2018-09-06T08:35:53.492Z,1013.56
2018-09-06T08:36:53.722Z,1013.56
2018-09-06T08:37:53.767Z,1013.54
2018-09-06T08:38:53.914Z,1013.52
2018-09-06T08:39:53.544Z,1013.51
2018-09-06T08:40:53.485Z,1013.48
2018-09-06T08:41:53.533Z,1013.49
2018-09-06T08:42:53.549Z,1013.49
2018-09-06T08:43:53.541Z,1013.51
2018-09-06T08:44:53.486Z,1013.54
2018-09-06T08:45:53.630Z,1013.54
2018-09-06T08:46:53.750Z,1013.5
2018-09-06T08:47:53.532Z,1013.55
2018-09-06T08:48:53.540Z,1013.53
2018-09-06T08:49:53.675Z,1013.54
2018-09-06T08:50:53.660Z,1013.58
2018-09-06T08:51:53.598Z,1013.57
2018-09-06T08:52:53.483Z,1013.53
2018-09-06T08:53:53.662Z,1013.56
2018-09-06T08:54:53.512Z,1013.58
2018-09-06T08:55:53.584Z,1013.59
2018-09-06T08:56:53.498Z,1013.59
2018-09-06T08:57:53.507Z,1013.58
2018-09-06T08:58:53.523Z,1013.57
2018-09-06T08:59:53.502Z,1013.56
2018-09-06T09:00:53.536Z,1013.6
2018-09-06T09:01:53.500Z,1013.59
2018-09-06T09:02:53.879Z,1013.59
2018-09-06T09:03:53.501Z,1013.61
2018-09-06T09:04:53.667Z,1013.58
2018-09-06T09:05:53.609Z,1013.58
2018-09-06T09:06:53.520Z,1013.56
2018-09-06T09:07:53.609Z,1013.6
2018-09-06T09:08:53.757Z,1013.54
2018-09-06T09:09:53.508Z,1013.55
2018-09-06T09:10:53.501Z,1013.52
2018-09-06T09:11:53.507Z,1013.55
2018-09-06T09:12:53.603Z,1013.49
2018-09-06T09:13:53.528Z,1013.48
2018-09-06T09:14:53.506Z,1013.49
2018-09-06T09:15:53.587Z,1013.45
2018-09-06T09:16:53.580Z,1013.45
2018-09-06T09:17:53.979Z,1013.4
2018-09-06T09:18:53.492Z,1013.37
2018-09-06T09:19:53.554Z,1013.41
2018-09-06T09:20:53.496Z,1013.41
2018-09-06T09:21:53.730Z,1013.38
2018-09-06T09:22:53.592Z,1013.41
2018-09-06T09:23:53.702Z,1013.39
2018-09-06T09:24:53.533Z,1013.42
2018-09-06T09:25:53.583Z,1013.38
2018-09-06T09:26:53.598Z,1013.36
2018-09-06T09:27:53.593Z,1013.35
2018-09-06T09:28:53.551Z,1013.33
2018-09-06T09:29:53.669Z,1013.32
2018-09-06T09:30:53.564Z,1013.32
2018-09-06T09:31:53.736Z,1013.33
2018-09-06T09:32:53.535Z,1013.36
2018-09-06T09:33:53.726Z,1013.33
2018-09-06T09:34:53.510Z,1013.3
2018-09-06T09:35:53.677Z,1013.35
2018-09-06T09:36:53.727Z,1013.32
2018-09-06T09:37:53.514Z,1013.32
2018-09-06T09:38:53.507Z,1013.32
2018-09-06T09:39:53.512Z,1013.31
2018-09-06T09:40:53.541Z,1013.29
2018-09-06T09:41:53.650Z,1013.29
2018-09-06T09:42:53.594Z,1013.32
2018-09-06T09:43:53.543Z,1013.26
2018-09-06T09:44:53.523Z,1013.27
2018-09-06T09:45:53.720Z,1013.21
2018-09-06T09:47:53.811Z,1013.2
2018-09-06T09:49:53.619Z,1013.24
2018-09-06T09:50:53.837Z,1013.18
2018-09-06T09:51:53.536Z,1013.16
2018-09-06T09:52:53.543Z,1013.11
2018-09-06T09:53:53.769Z,1013.08
2018-09-06T09:54:54.527Z,1013.13
2018-09-06T09:55:53.621Z,1013.07
2018-09-06T09:56:53.814Z,1013.04
2018-09-06T09:57:53.549Z,1012.98
2018-09-06T09:58:53.883Z,1012.93
2018-09-06T09:59:53.627Z,1012.94
2018-09-06T10:00:53.691Z,1012.89
2018-09-06T10:01:53.690Z,1012.89
2018-09-06T10:02:53.597Z,1012.89
2018-09-06T10:03:53.637Z,1012.89
2018-09-06T10:04:53.575Z,1012.89
2018-09-06T10:05:53.550Z,1012.88
2018-09-06T10:07:53.662Z,1012.85
2018-09-06T10:08:53.560Z,1012.82
2018-09-06T10:09:53.547Z,1012.82
2018-09-06T10:10:53.650Z,1012.77
2018-09-06T10:11:53.583Z,1012.79
2018-09-06T10:12:53.612Z,1012.78
2018-09-06T10:13:53.541Z,1012.76
2018-09-06T10:14:54.033Z,1012.76
2018-09-06T10:15:53.581Z,1012.74
2018-09-06T10:16:53.697Z,1012.75
2018-09-06T10:17:53.543Z,1012.72
2018-09-06T10:18:53.546Z,1012.72
2018-09-06T10:19:53.595Z,1012.72
2018-09-06T10:20:53.600Z,1012.72
2018-09-06T10:21:53.552Z,1012.72
2018-09-06T10:22:53.557Z,1012.72
2018-09-06T10:23:53.572Z,1012.69
2018-09-06T10:24:53.583Z,1012.68
2018-09-06T10:25:53.546Z,1012.73
2018-09-06T10:26:53.687Z,1012.67
2018-09-06T10:27:53.570Z,1012.67
2018-09-06T10:28:53.607Z,1012.63
2018-09-06T10:29:53.606Z,1012.63
2018-09-06T10:30:53.542Z,1012.63
2018-09-06T10:31:53.636Z,1012.57
2018-09-06T10:32:53.584Z,1012.62
2018-09-06T10:33:53.559Z,1012.6
2018-09-06T10:34:53.578Z,1012.56
2018-09-06T10:35:53.576Z,1012.53
2018-09-06T10:36:53.575Z,1012.52
2018-09-06T10:37:53.618Z,1012.52
2018-09-06T10:38:53.568Z,1012.45
2018-09-06T10:39:53.714Z,1012.48
2018-09-06T10:40:53.583Z,1012.46
2018-09-06T10:41:53.780Z,1012.43
2018-09-06T10:42:53.582Z,1012.39
2018-09-06T10:43:53.625Z,1012.36
2018-09-06T10:44:53.562Z,1012.39
2018-09-06T10:45:53.558Z,1012.39
2018-09-06T10:46:53.736Z,1012.36
2018-09-06T10:47:53.968Z,1012.39
2018-09-06T10:48:53.652Z,1012.38
2018-09-06T10:49:53.682Z,1012.36
2018-09-06T10:50:53.842Z,1012.34
2018-09-06T10:51:53.994Z,1012.36
2018-09-06T10:52:53.595Z,1012.28
2018-09-06T10:53:54.012Z,1012.26
2018-09-06T10:54:53.913Z,1012.26
2018-09-06T10:55:53.580Z,1012.24
2018-09-06T10:56:53.578Z,1012.25
2018-09-06T10:57:53.609Z,1012.22
2018-09-06T10:58:54.039Z,1012.23
2018-09-06T10:59:53.573Z,1012.18
2018-09-06T11:00:53.641Z,1012.2
2018-09-06T11:01:53.962Z,1012.2
2018-09-06T11:02:53.809Z,1012.19
2018-09-06T11:03:53.590Z,1012.21
2018-09-06T11:04:53.739Z,1012.17
2018-09-06T11:05:53.593Z,1012.15
2018-09-06T11:06:53.612Z,1012.11
2018-09-06T11:07:54.091Z,1012.06
2018-09-06T11:08:53.623Z,1012.05
2018-09-06T11:09:53.621Z,1012.04
2018-09-06T11:10:53.648Z,1012.04
2018-09-06T11:11:53.671Z,1012
2018-09-06T11:12:53.616Z,1012.01
2018-09-06T11:13:53.728Z,1012.05
2018-09-06T11:14:53.636Z,1012.02
2018-09-06T11:15:53.716Z,1012.03
2018-09-06T11:16:53.594Z,1012.04
2018-09-06T11:17:53.749Z,1012
2018-09-06T11:18:53.656Z,1011.98
2018-09-06T11:19:53.681Z,1012
2018-09-06T11:20:53.626Z,1011.98
2018-09-06T11:21:54.250Z,1011.93
2018-09-06T11:22:53.709Z,1011.93
2018-09-06T11:23:53.605Z,1011.89
2018-09-06T11:24:53.721Z,1011.95
2018-09-06T11:25:53.685Z,1011.93
2018-09-06T11:26:53.601Z,1011.88
2018-09-06T11:27:53.831Z,1011.85
2018-09-06T11:28:53.612Z,1011.87
2018-09-06T11:29:53.624Z,1011.88
2018-09-06T11:30:53.690Z,1011.84
2018-09-06T11:31:53.608Z,1011.83
2018-09-06T11:32:53.825Z,1011.84
2018-09-06T11:33:53.612Z,1011.8
2018-09-06T11:34:53.739Z,1011.82
2018-09-06T11:35:53.622Z,1011.78
2018-09-06T11:36:53.610Z,1011.8
2018-09-06T11:37:53.672Z,1011.8
2018-09-06T11:38:53.662Z,1011.8
2018-09-06T11:39:53.673Z,1011.8
2018-09-06T11:40:53.606Z,1011.8
2018-09-06T11:41:53.610Z,1011.81
2018-09-06T11:42:53.682Z,1011.77
2018-09-06T11:43:53.935Z,1011.77
2018-09-06T11:44:53.621Z,1011.77
2018-09-06T11:45:54.163Z,1011.78
2018-09-06T11:46:53.948Z,1011.75
2018-09-06T11:47:53.752Z,1011.73
2018-09-06T11:48:53.612Z,1011.73
2018-09-06T11:49:53.609Z,1011.76
2018-09-06T11:50:53.821Z,1011.7
2018-09-06T11:51:53.629Z,1011.71
2018-09-06T11:52:53.709Z,1011.7
2018-09-06T11:53:53.635Z,1011.66
2018-09-06T11:54:53.624Z,1011.69
2018-09-06T11:55:53.638Z,1011.68
2018-09-06T11:56:54.002Z,1011.65
2018-09-06T11:57:53.693Z,1011.63
2018-09-06T11:58:53.658Z,1011.64
2018-09-06T11:59:53.738Z,1011.6
2018-09-06T12:00:53.687Z,1011.58
2018-09-06T12:01:53.664Z,1011.6
2018-09-06T12:02:53.686Z,1011.59
2018-09-06T12:03:53.674Z,1011.6
2018-09-06T12:04:53.663Z,1011.51
2018-09-06T12:05:53.661Z,1011.58
2018-09-06T12:06:53.832Z,1011.59
2018-09-06T12:07:54.015Z,1011.52
2018-09-06T12:08:53.711Z,1011.5
2018-09-06T12:09:53.608Z,1011.51
2018-09-06T12:10:54.024Z,1011.5
2018-09-06T12:11:53.667Z,1011.47